Time;durP1;ratioP1;P1;durP2;ratioP2;P2;SDS_P1;SDS_P2;PMS_P1;PMS_P2;Temp;Humidity;BMP_temperature;BMP_pressure;BME280_temperature;BME280_humidity;BME280_pressure;Samples;Min_cycle;Max_cycle;Signal;HPM_P1;HPM_P2
2021/05/31 00:01:54;;;;;;;8.65;4.63;;;16.30;46.10;;;;;;5032512;28;20038;-63
2021/05/31 00:04:20;;;;;;;8.82;4.28;;;16.30;46.20;;;;;;5032763;28;20029;-63
2021/05/31 00:07:04;;;;;;;8.07;4.63;;;16.20;46.30;;;;;;5032865;28;20072;-63
2021/05/31 00:09:30;;;;;;;7.72;4.93;;;16.10;46.50;;;;;;5032187;28;20104;-63
2021/05/31 00:11:56;;;;;;;6.65;4.22;;;16.10;46.60;;;;;;5032913;28;20451;-63
2021/05/31 00:14:21;;;;;;;7.18;4.70;;;16.10;46.70;;;;;;5032679;28;20030;-63
2021/05/31 00:16:47;;;;;;;7.15;4.90;;;16.00;46.80;;;;;;5032620;28;20092;-63
2021/05/31 00:19:14;;;;;;;7.35;4.38;;;16.00;47.10;;;;;;5032738;28;20495;-63
2021/05/31 00:21:39;;;;;;;12.00;5.50;;;16.00;47.20;;;;;;5032634;28;20034;-63
2021/05/31 00:24:05;;;;;;;8.43;4.80;;;16.00;47.40;;;;;;5032695;28;20030;-63
2021/05/31 00:26:31;;;;;;;5.10;4.22;;;15.90;47.40;;;;;;5014970;28;20039;-63
2021/05/31 00:28:56;;;;;;;11.45;5.30;;;15.90;47.60;;;;;;5032433;28;20021;-61
2021/05/31 00:31:22;;;;;;;10.27;6.05;;;15.80;47.70;;;;;;5032390;28;20108;-61
2021/05/31 00:33:47;;;;;;;10.20;4.75;;;15.80;47.80;;;;;;5025291;28;20065;-63
2021/05/31 00:36:13;;;;;;;10.25;5.70;;;15.80;47.90;;;;;;5012937;28;20033;-62
2021/05/31 00:38:40;;;;;;;12.73;5.95;;;15.80;48.20;;;;;;5012668;28;20037;-63
2021/05/31 00:41:06;;;;;;;7.82;4.78;;;15.70;48.10;;;;;;5016230;28;20046;-63
2021/05/31 00:43:34;;;;;;;8.88;5.55;;;15.80;48.10;;;;;;5032260;28;20021;-63
2021/05/31 00:46:03;;;;;;;9.95;5.10;;;15.80;48.30;;;;;;5032424;28;20259;-63
2021/05/31 00:48:29;;;;;;;7.93;5.03;;;15.80;48.70;;;;;;5032104;28;20056;-63
2021/05/31 00:50:55;;;;;;;12.18;6.85;;;15.70;48.30;;;;;;5026229;28;20116;-63
2021/05/31 00:53:21;;;;;;;10.35;5.35;;;15.70;48.40;;;;;;5021998;28;20064;-61
2021/05/31 00:55:46;;;;;;;8.70;5.32;;;15.70;48.40;;;;;;5021270;28;20046;-63
2021/05/31 00:58:12;;;;;;;11.27;6.68;;;15.70;48.40;;;;;;5015458;28;20034;-63
2021/05/31 01:00:38;;;;;;;9.52;5.20;;;15.70;48.40;;;;;;5014495;28;20526;-63
2021/05/31 01:03:04;;;;;;;8.88;5.53;;;15.60;48.40;;;;;;5030887;28;20108;-63
2021/05/31 01:05:29;;;;;;;9.13;4.88;;;15.60;48.20;;;;;;5031098;28;20052;-63
2021/05/31 01:08:00;;;;;;;10.93;5.60;;;15.60;48.10;;;;;;5013485;28;20033;-62
2021/05/31 01:10:32;;;;;;;9.32;5.18;;;15.60;48.20;;;;;;5030577;28;20025;-63
2021/05/31 01:13:09;;;;;;;9.23;5.65;;;15.60;48.20;;;;;;5001719;28;20069;-62
2021/05/31 01:15:46;;;;;;;9.75;5.28;;;15.60;48.30;;;;;;5001708;28;20022;-62
2021/05/31 01:18:18;;;;;;;7.63;5.40;;;15.60;48.10;;;;;;5003783;28;20037;-61
2021/05/31 01:21:18;;;;;;;8.98;5.20;;;15.60;48.40;;;;;;5028619;28;20025;-62
2021/05/31 01:23:46;;;;;;;8.70;5.25;;;15.60;48.50;;;;;;5029383;28;20464;-62
2021/05/31 01:26:15;;;;;;;6.95;5.05;;;15.60;48.70;;;;;;5028040;28;20036;-61
2021/05/31 01:28:59;;;;;;;12.02;5.13;;;15.50;48.80;;;;;;5029483;28;20025;-61
2021/05/31 01:31:47;;;;;;;12.57;5.72;;;15.50;48.90;;;;;;5020874;28;20033;-64
2021/05/31 01:34:14;;;;;;;8.48;4.80;;;15.40;48.50;;;;;;5018210;28;20030;-63
2021/05/31 01:36:46;;;;;;;9.25;5.28;;;15.40;48.40;;;;;;5023790;28;20033;-62
2021/05/31 01:39:13;;;;;;;12.10;5.03;;;15.40;48.30;;;;;;5028106;28;20021;-62
2021/05/31 01:41:39;;;;;;;9.73;6.20;;;15.40;48.50;;;;;;5030250;28;20061;-62
2021/05/31 01:44:05;;;;;;;11.95;5.22;;;15.40;48.50;;;;;;5029974;28;20063;-62
2021/05/31 01:46:30;;;;;;;8.00;4.95;;;15.30;48.50;;;;;;5012814;28;20033;-62
2021/05/31 01:48:56;;;;;;;7.72;4.20;;;15.30;48.40;;;;;;5013460;28;20025;-63
2021/05/31 01:51:21;;;;;;;9.60;4.68;;;15.30;48.60;;;;;;5012992;28;20044;-63
2021/05/31 01:53:47;;;;;;;7.65;4.53;;;15.30;48.60;;;;;;5013156;28;20025;-63
2021/05/31 01:56:13;;;;;;;12.38;5.00;;;15.30;48.50;;;;;;5013497;28;20141;-62
2021/05/31 01:58:39;;;;;;;12.48;5.57;;;15.30;48.50;;;;;;5013102;28;20484;-63
2021/05/31 02:01:06;;;;;;;10.10;5.03;;;15.20;48.50;;;;;;5030770;28;20026;-62
2021/05/31 02:03:31;;;;;;;7.72;4.85;;;15.20;48.50;;;;;;5030450;28;20034;-62
2021/05/31 02:05:57;;;;;;;9.57;4.75;;;15.20;48.20;;;;;;5030858;28;20143;-63
2021/05/31 02:08:22;;;;;;;8.45;4.20;;;15.20;47.90;;;;;;5030644;28;20587;-62
2021/05/31 02:10:48;;;;;;;7.63;4.63;;;15.20;47.70;;;;;;5030460;28;20064;-62
2021/05/31 02:13:15;;;;;;;7.53;4.53;;;15.30;47.60;;;;;;5012909;28;20747;-62
2021/05/31 02:15:41;;;;;;;13.90;5.30;;;15.30;47.70;;;;;;5030785;28;20048;-62
2021/05/31 02:18:11;;;;;;;9.52;5.03;;;15.20;47.60;;;;;;5030549;28;20048;-63
2021/05/31 02:20:36;;;;;;;9.25;5.30;;;15.20;47.60;;;;;;5030516;28;20022;-62
2021/05/31 02:23:04;;;;;;;10.27;5.00;;;15.20;47.80;;;;;;5012663;28;20035;-62
2021/05/31 02:25:30;;;;;;;8.85;5.03;;;15.20;47.90;;;;;;5012826;28;20029;-62
2021/05/31 02:27:58;;;;;;;7.18;4.93;;;15.10;48.10;;;;;;5012737;28;20083;-63
2021/05/31 02:30:23;;;;;;;7.65;4.65;;;15.10;48.20;;;;;;5030213;28;20026;-63
2021/05/31 02:32:49;;;;;;;6.88;5.03;;;15.10;48.40;;;;;;5012340;28;20220;-63
2021/05/31 02:35:16;;;;;;;8.77;5.20;;;15.00;48.50;;;;;;5030126;28;20143;-62
2021/05/31 02:37:42;;;;;;;9.43;4.60;;;15.00;48.80;;;;;;5012798;28;20041;-63
2021/05/31 02:40:08;;;;;;;9.63;5.15;;;14.90;48.80;;;;;;5030078;28;20064;-63
2021/05/31 02:42:42;;;;;;;9.68;5.30;;;14.90;49.30;;;;;;5030015;28;20056;-63
2021/05/31 02:45:08;;;;;;;8.40;5.30;;;14.90;49.20;;;;;;5030255;28;20484;-63
2021/05/31 02:47:34;;;;;;;8.95;5.80;;;14.90;49.30;;;;;;5030226;28;20056;-63
2021/05/31 02:49:59;;;;;;;8.75;5.05;;;14.80;49.60;;;;;;5012514;28;20029;-63
2021/05/31 02:52:25;;;;;;;7.80;5.38;;;14.80;49.80;;;;;;5030181;28;20112;-62
2021/05/31 02:54:51;;;;;;;9.65;5.30;;;14.80;50.20;;;;;;5030058;28;20024;-62
2021/05/31 02:57:17;;;;;;;10.68;6.35;;;14.70;50.20;;;;;;5029372;28;20034;-63
2021/05/31 02:59:43;;;;;;;9.98;5.47;;;14.70;50.40;;;;;;5030294;28;20022;-62
2021/05/31 03:02:08;;;;;;;12.10;5.57;;;14.70;50.90;;;;;;5030038;28;20025;-63
2021/05/31 03:04:34;;;;;;;14.23;6.32;;;14.70;51.00;;;;;;5029945;28;20115;-63
2021/05/31 03:06:59;;;;;;;8.20;5.88;;;14.60;51.20;;;;;;5030000;28;20041;-63
2021/05/31 03:09:25;;;;;;;11.45;5.32;;;14.60;51.20;;;;;;5030019;28;20087;-63
2021/05/31 03:11:50;;;;;;;10.32;4.80;;;14.50;51.00;;;;;;5029749;28;20034;-62
2021/05/31 03:14:16;;;;;;;11.60;5.55;;;14.60;51.20;;;;;;5029842;28;20468;-62
2021/05/31 03:16:41;;;;;;;13.27;6.32;;;14.40;51.00;;;;;;5029690;28;20025;-62
2021/05/31 03:19:07;;;;;;;12.27;6.18;;;14.50;51.30;;;;;;5029650;28;20022;-62
2021/05/31 03:21:32;;;;;;;9.40;5.65;;;14.40;51.40;;;;;;5029847;28;20357;-62
2021/05/31 03:23:58;;;;;;;9.73;5.43;;;14.40;51.40;;;;;;5030091;28;20439;-62
2021/05/31 03:26:23;;;;;;;12.73;5.70;;;14.50;51.40;;;;;;5029793;28;20014;-62
2021/05/31 03:28:49;;;;;;;8.27;5.35;;;14.40;51.30;;;;;;5029839;28;20202;-63
2021/05/31 03:31:14;;;;;;;10.10;5.47;;;14.40;51.70;;;;;;5029961;28;20025;-62
2021/05/31 03:33:40;;;;;;;10.20;5.97;;;14.30;51.60;;;;;;5029766;28;20056;-62
2021/05/31 03:36:06;;;;;;;10.07;5.43;;;14.40;51.70;;;;;;5029745;28;20546;-62
2021/05/31 03:38:31;;;;;;;9.90;5.60;;;14.30;51.60;;;;;;5029761;28;20669;-62
2021/05/31 03:40:59;;;;;;;10.00;5.63;;;14.30;51.70;;;;;;5029696;28;20053;-63
2021/05/31 03:43:24;;;;;;;14.30;5.90;;;14.30;51.90;;;;;;5029747;28;20026;-62
2021/05/31 03:45:50;;;;;;;12.77;6.22;;;14.30;51.80;;;;;;5031661;28;20515;-62
2021/05/31 03:48:15;;;;;;;10.38;5.93;;;14.30;52.00;;;;;;5033338;28;20045;-62
2021/05/31 03:50:41;;;;;;;13.07;6.47;;;14.30;51.90;;;;;;5033450;28;20030;-62
2021/05/31 03:53:06;;;;;;;10.77;5.88;;;14.30;52.00;;;;;;5033048;28;20032;-62
2021/05/31 03:55:32;;;;;;;15.95;6.05;;;14.30;51.90;;;;;;5032910;28;20100;-62
2021/05/31 03:57:57;;;;;;;13.90;6.40;;;14.30;51.70;;;;;;5033187;28;20022;-62
2021/05/31 04:00:24;;;;;;;8.75;5.75;;;14.30;51.70;;;;;;5032987;28;20064;-63
2021/05/31 04:02:50;;;;;;;11.13;6.03;;;14.40;51.70;;;;;;5032704;28;20033;-62
2021/05/31 04:05:16;;;;;;;11.68;6.28;;;14.40;51.60;;;;;;5015273;28;20037;-62
2021/05/31 04:13:13;;;;;;;13.07;6.85;;;14.50;51.50;;;;;;5032897;28;20036;-62
2021/05/31 04:15:38;;;;;;;11.43;6.22;;;14.60;51.60;;;;;;5032421;28;20376;-62
2021/05/31 04:18:04;;;;;;;12.30;6.50;;;14.60;51.70;;;;;;5032350;28;20022;-62
2021/05/31 04:20:30;;;;;;;13.32;6.72;;;14.60;51.40;;;;;;5032562;28;20025;-62
2021/05/31 04:22:55;;;;;;;13.15;6.20;;;14.70;51.00;;;;;;5032409;28;20476;-62
2021/05/31 04:25:21;;;;;;;12.63;6.63;;;14.80;51.00;;;;;;5014624;28;20112;-62
2021/05/31 04:27:47;;;;;;;12.20;6.40;;;14.80;51.00;;;;;;5032165;28;20072;-62
2021/05/31 04:30:13;;;;;;;15.98;7.13;;;14.90;51.60;;;;;;5032628;28;20029;-62
2021/05/31 04:32:38;;;;;;;14.57;6.63;;;14.90;51.80;;;;;;5032275;28;20095;-62
2021/05/31 04:35:04;;;;;;;14.07;7.07;;;15.00;52.20;;;;;;5032435;28;20520;-62
2021/05/31 04:37:33;;;;;;;16.83;7.70;;;15.00;52.80;;;;;;5032279;28;20097;-62
2021/05/31 04:39:58;;;;;;;17.73;6.93;;;15.10;53.60;;;;;;5014980;28;20033;-62
2021/05/31 04:42:24;;;;;;;15.98;7.45;;;15.10;52.90;;;;;;5032263;28;20021;-62
2021/05/31 04:44:49;;;;;;;16.95;7.05;;;15.20;52.50;;;;;;5032062;28;20140;-62
2021/05/31 04:47:17;;;;;;;15.75;7.40;;;15.30;52.40;;;;;;5031952;28;20034;-62
2021/05/31 04:49:43;;;;;;;14.80;8.02;;;15.40;52.00;;;;;;5031399;28;20438;-62
2021/05/31 04:52:08;;;;;;;15.57;8.30;;;15.50;51.90;;;;;;5030953;28;20052;-63
2021/05/31 04:54:34;;;;;;;17.92;8.05;;;15.60;51.50;;;;;;5030957;28;20274;-62
2021/05/31 04:56:59;;;;;;;19.15;8.60;;;15.60;51.40;;;;;;5031294;28;20388;-62
2021/05/31 04:59:25;;;;;;;12.23;7.78;;;15.70;51.50;;;;;;5031242;28;20094;-62
2021/05/31 05:01:50;;;;;;;13.98;8.13;;;15.80;50.50;;;;;;5028603;28;20467;-62
2021/05/31 05:04:16;;;;;;;15.38;8.32;;;15.80;50.30;;;;;;5028827;28;20108;-62
2021/05/31 05:06:43;;;;;;;20.20;8.80;;;15.80;50.00;;;;;;5030526;28;20133;-62
2021/05/31 05:09:08;;;;;;;20.02;9.30;;;15.90;50.50;;;;;;5030157;28;20431;-62
2021/05/31 05:11:34;;;;;;;17.15;8.10;;;16.00;49.90;;;;;;5029978;28;20080;-62
2021/05/31 05:14:00;;;;;;;16.90;7.93;;;16.00;49.10;;;;;;5030466;28;20480;-62
2021/05/31 05:16:26;;;;;;;17.45;7.30;;;16.10;48.50;;;;;;5030332;28;20018;-62
2021/05/31 05:18:52;;;;;;;12.63;7.63;;;16.10;48.20;;;;;;5029795;28;20027;-63
2021/05/31 05:21:17;;;;;;;16.00;7.57;;;16.20;48.30;;;;;;5030074;28;20093;-63
2021/05/31 05:23:47;;;;;;;13.48;7.88;;;16.20;48.20;;;;;;5030056;28;20025;-63
2021/05/31 05:26:13;;;;;;;13.15;6.95;;;16.20;47.90;;;;;;5030279;28;20037;-63
2021/05/31 05:28:38;;;;;;;15.35;7.38;;;16.20;48.10;;;;;;5029741;28;20025;-63
2021/05/31 05:31:07;;;;;;;16.67;8.02;;;16.20;48.10;;;;;;5029688;28;20067;-63
2021/05/31 05:33:35;;;;;;;13.93;8.20;;;16.20;48.00;;;;;;5029282;28;20448;-63
2021/05/31 05:36:14;;;;;;;12.18;7.25;;;16.30;47.90;;;;;;5029827;28;20104;-62
2021/05/31 05:39:00;;;;;;;13.48;7.65;;;16.40;47.70;;;;;;5029493;28;20029;-63
2021/05/31 05:44:34;;;;;;;10.95;6.63;;;16.50;47.50;;;;;;5029498;28;20702;-64
2021/05/31 05:49:43;;;;;;;14.25;7.38;;;16.70;46.90;;;;;;5029445;28;20330;-63
2021/05/31 05:52:08;;;;;;;14.32;6.93;;;16.80;46.80;;;;;;5011851;28;20026;-63
2021/05/31 05:54:34;;;;;;;12.55;7.00;;;16.80;46.40;;;;;;5029000;28;20406;-63
2021/05/31 05:56:59;;;;;;;10.25;6.47;;;16.90;45.60;;;;;;5029584;28;20109;-63
2021/05/31 05:59:26;;;;;;;15.38;7.22;;;17.00;45.40;;;;;;5029925;28;20137;-63
2021/05/31 06:01:51;;;;;;;10.00;6.20;;;17.00;45.50;;;;;;5029265;28;20128;-62
2021/05/31 06:04:17;;;;;;;10.38;6.28;;;17.10;44.60;;;;;;5028900;28;20159;-64
2021/05/31 06:06:46;;;;;;;9.30;5.57;;;17.30;44.50;;;;;;5029584;28;20033;-63
2021/05/31 06:09:12;;;;;;;13.80;5.57;;;17.30;44.00;;;;;;5029101;28;20033;-64
2021/05/31 06:11:38;;;;;;;13.23;6.32;;;17.40;43.80;;;;;;5011719;28;20029;-64
2021/05/31 06:14:04;;;;;;;17.73;7.25;;;17.50;43.80;;;;;;5015898;28;20041;-65
2021/05/31 06:16:29;;;;;;;16.48;6.72;;;17.60;43.80;;;;;;5009109;28;20025;-65
2021/05/31 06:18:55;;;;;;;14.10;6.55;;;17.70;43.70;;;;;;5015920;28;20120;-65
2021/05/31 06:21:21;;;;;;;9.57;6.70;;;17.90;43.70;;;;;;4993423;28;20113;-65
2021/05/31 06:23:46;;;;;;;13.05;7.03;;;18.00;43.40;;;;;;5009974;28;20037;-65
2021/05/31 06:26:12;;;;;;;15.18;6.22;;;18.10;42.70;;;;;;5010221;28;20495;-65
2021/05/31 06:28:38;;;;;;;13.65;6.88;;;18.20;42.60;;;;;;5009736;28;20026;-65
2021/05/31 06:31:03;;;;;;;11.45;6.50;;;18.40;42.60;;;;;;5009782;28;20052;-61
2021/05/31 06:33:29;;;;;;;17.25;6.60;;;18.50;42.10;;;;;;5007995;28;20473;-61
2021/05/31 06:35:57;;;;;;;14.38;6.60;;;18.60;41.90;;;;;;5006546;28;20539;-62
2021/05/31 06:38:22;;;;;;;12.77;5.70;;;18.70;41.20;;;;;;5011284;28;20029;-62
2021/05/31 06:40:48;;;;;;;17.70;7.68;;;18.70;41.00;;;;;;5028441;28;20041;-62
2021/05/31 06:43:13;;;;;;;18.80;6.50;;;18.80;41.30;;;;;;5028520;28;20183;-61
2021/05/31 06:45:39;;;;;;;13.23;5.93;;;19.10;41.20;;;;;;5028512;28;20373;-62
2021/05/31 06:48:06;;;;;;;13.07;6.38;;;19.20;41.00;;;;;;5010696;28;20154;-61
2021/05/31 06:50:33;;;;;;;10.85;5.57;;;19.50;40.40;;;;;;5028555;28;20034;-63
2021/05/31 06:52:58;;;;;;;15.55;6.13;;;19.50;39.70;;;;;;5004416;28;20033;-64
2021/05/31 06:55:25;;;;;;;11.35;5.40;;;19.70;39.70;;;;;;4991608;28;20026;-65
2021/05/31 06:57:51;;;;;;;9.48;5.50;;;19.60;39.20;;;;;;5009334;28;20024;-64
2021/05/31 07:00:19;;;;;;;11.55;5.95;;;19.60;39.50;;;;;;5008802;28;20160;-63
2021/05/31 07:02:44;;;;;;;15.75;6.20;;;19.60;40.10;;;;;;5009084;28;20029;-63
2021/05/31 07:05:10;;;;;;;12.98;5.80;;;19.80;40.20;;;;;;5008942;28;20049;-63
2021/05/31 07:07:36;;;;;;;10.90;6.07;;;20.00;40.00;;;;;;5009215;28;20676;-62
2021/05/31 07:10:04;;;;;;;11.32;6.03;;;20.10;39.80;;;;;;4991757;28;20049;-63
2021/05/31 07:12:29;;;;;;;10.95;6.18;;;20.40;39.70;;;;;;5009354;28;20034;-64
2021/05/31 07:14:56;;;;;;;14.98;5.85;;;20.50;39.60;;;;;;4991232;28;20757;-61
2021/05/31 07:17:22;;;;;;;13.07;6.65;;;20.70;39.40;;;;;;5008405;28;20109;-62
2021/05/31 07:19:47;;;;;;;12.98;6.60;;;20.60;39.90;;;;;;4991459;28;20100;-62
2021/05/31 07:22:14;;;;;;;13.20;6.28;;;20.70;39.70;;;;;;4995107;28;20445;-61
2021/05/31 07:24:40;;;;;;;10.40;6.25;;;20.70;39.80;;;;;;5012374;28;20113;-62
2021/05/31 07:27:06;;;;;;;14.55;6.07;;;20.90;39.80;;;;;;5022656;28;20420;-63
2021/05/31 07:29:31;;;;;;;18.15;9.77;;;21.10;39.60;;;;;;5023376;28;20075;-64
2021/05/31 07:31:57;;;;;;;15.48;6.53;;;21.50;39.30;;;;;;5021115;28;20033;-63
2021/05/31 07:34:22;;;;;;;18.60;5.78;;;21.90;39.20;;;;;;5023221;28;20032;-63
2021/05/31 07:36:48;;;;;;;14.32;5.97;;;22.30;38.50;;;;;;5020541;28;20026;-64
2021/05/31 07:39:13;;;;;;;12.75;7.07;;;22.60;38.30;;;;;;5021590;28;20025;-63
2021/05/31 07:41:39;;;;;;;15.65;7.65;;;22.60;37.80;;;;;;5029111;28;20056;-64
2021/05/31 07:44:04;;;;;;;14.23;7.70;;;22.80;38.10;;;;;;5032129;28;20025;-63
2021/05/31 07:46:30;;;;;;;22.15;9.30;;;22.60;38.10;;;;;;5008533;28;20136;-64
2021/05/31 07:48:56;;;;;;;18.65;7.95;;;22.80;38.10;;;;;;5017413;28;20018;-64
2021/05/31 07:51:21;;;;;;;13.35;7.57;;;23.20;37.60;;;;;;5006748;28;20071;-64
2021/05/31 07:53:48;;;;;;;23.30;8.80;;;23.40;37.30;;;;;;5031816;28;20025;-63
2021/05/31 07:56:14;;;;;;;22.80;7.97;;;23.60;37.00;;;;;;5031927;28;20105;-63
2021/05/31 07:58:43;;;;;;;19.00;8.73;;;23.50;36.90;;;;;;5032051;28;20092;-64
2021/05/31 08:01:12;;;;;;;18.15;8.35;;;23.70;36.80;;;;;;5030273;28;20034;-64
2021/05/31 08:03:41;;;;;;;16.23;7.60;;;23.90;36.40;;;;;;5028090;28;20468;-63
2021/05/31 08:06:07;;;;;;;15.93;7.65;;;23.90;36.30;;;;;;5027652;28;20036;-63
2021/05/31 08:08:32;;;;;;;17.10;7.45;;;24.00;36.00;;;;;;5027389;28;20037;-63
2021/05/31 08:11:01;;;;;;;14.18;7.93;;;23.80;36.30;;;;;;5006676;28;20025;-63
2021/05/31 08:13:26;;;;;;;15.38;8.63;;;23.90;36.10;;;;;;5013653;28;20037;-65
2021/05/31 08:15:52;;;;;;;16.73;8.30;;;23.90;36.20;;;;;;5047704;28;20031;-63
2021/05/31 08:18:18;;;;;;;18.48;7.80;;;24.20;36.20;;;;;;5047465;28;20026;-63
2021/05/31 08:20:44;;;;;;;15.43;6.95;;;24.60;35.70;;;;;;5036825;28;20068;-66
2021/05/31 08:23:10;;;;;;;16.02;7.05;;;25.00;34.90;;;;;;5007917;28;20037;-64
2021/05/31 08:25:35;;;;;;;18.38;7.47;;;25.20;34.70;;;;;;5008985;28;20244;-64
2021/05/31 08:28:03;;;;;;;15.63;8.13;;;24.70;34.80;;;;;;5008077;28;20393;-64
2021/05/31 08:30:30;;;;;;;17.15;7.85;;;24.60;35.00;;;;;;5007716;28;20160;-64
2021/05/31 08:32:57;;;;;;;17.05;7.88;;;25.10;34.90;;;;;;5005517;28;20492;-64
2021/05/31 08:35:22;;;;;;;15.27;7.47;;;25.20;34.60;;;;;;5010678;28;20107;-69
2021/05/31 08:37:48;;;;;;;16.13;6.90;;;25.50;34.60;;;;;;5024183;28;20077;-63
2021/05/31 08:40:17;;;;;;;15.85;7.85;;;25.40;34.00;;;;;;5017238;28;20049;-65
2021/05/31 08:42:42;;;;;;;12.52;7.05;;;25.40;34.50;;;;;;5026733;28;20030;-64
2021/05/31 08:45:10;;;;;;;14.50;7.60;;;25.40;34.30;;;;;;5019202;28;20368;-64
2021/05/31 08:47:42;;;;;;;12.40;6.53;;;25.70;34.30;;;;;;5002128;28;20042;-64
2021/05/31 08:50:08;;;;;;;16.60;7.35;;;25.90;34.00;;;;;;5020608;28;20026;-65
2021/05/31 08:52:34;;;;;;;12.90;7.47;;;26.20;33.90;;;;;;5022066;28;20025;-64
2021/05/31 08:54:59;;;;;;;15.52;7.18;;;26.30;33.80;;;;;;5009669;28;20025;-64
2021/05/31 08:57:32;;;;;;;14.38;7.47;;;26.50;33.80;;;;;;5011426;28;20053;-66
2021/05/31 08:59:58;;;;;;;14.15;7.88;;;26.60;33.30;;;;;;5021270;28;20029;-62
2021/05/31 09:02:23;;;;;;;14.50;7.75;;;26.40;33.00;;;;;;5023557;28;20080;-64
2021/05/31 09:04:51;;;;;;;13.88;7.72;;;26.60;33.40;;;;;;5001241;28;20051;-63
2021/05/31 09:07:20;;;;;;;17.73;7.40;;;26.70;32.80;;;;;;5021904;28;20033;-64
2021/05/31 09:09:47;;;;;;;12.30;6.70;;;26.40;33.00;;;;;;5007462;28;20404;-64
2021/05/31 09:12:13;;;;;;;11.10;5.75;;;26.40;33.30;;;;;;5030959;28;20044;-65
2021/05/31 09:14:39;;;;;;;10.73;5.60;;;26.10;33.50;;;;;;5023872;28;20026;-64
2021/05/31 09:17:05;;;;;;;10.63;5.50;;;25.80;33.80;;;;;;5011053;28;20052;-64
2021/05/31 09:19:32;;;;;;;21.35;5.85;;;25.40;33.70;;;;;;5011024;28;20052;-62
2021/05/31 09:22:02;;;;;;;11.35;5.53;;;25.20;34.30;;;;;;4993965;28;20037;-66
2021/05/31 09:24:27;;;;;;;9.73;5.47;;;25.10;34.40;;;;;;5030444;28;20033;-79
2021/05/31 09:26:57;;;;;;;11.82;5.65;;;24.70;34.90;;;;;;5030747;28;20085;-63
2021/05/31 09:29:23;;;;;;;9.43;5.25;;;24.60;35.20;;;;;;5030556;28;20053;-67
2021/05/31 09:31:58;;;;;;;9.60;5.07;;;24.70;34.80;;;;;;5030327;28;20045;-68
2021/05/31 09:34:24;;;;;;;10.80;4.88;;;24.20;34.90;;;;;;5030650;28;20033;-67
2021/05/31 09:36:50;;;;;;;8.82;5.80;;;23.80;35.10;;;;;;5030450;28;20013;-67
2021/05/31 09:39:16;;;;;;;12.52;6.13;;;23.90;35.50;;;;;;5030319;28;20049;-69
2021/05/31 09:41:42;;;;;;;12.90;5.40;;;24.00;35.20;;;;;;5030557;28;20088;-67
2021/05/31 09:44:08;;;;;;;8.93;4.90;;;24.80;35.10;;;;;;5029538;28;20018;-69
2021/05/31 09:46:34;;;;;;;9.85;4.82;;;25.90;34.70;;;;;;5030552;28;20680;-64
2021/05/31 09:48:59;;;;;;;6.75;4.90;;;26.80;33.90;;;;;;5021912;28;20029;-66
2021/05/31 09:51:25;;;;;;;6.60;4.60;;;27.70;32.80;;;;;;5024016;28;20021;-68
2021/05/31 09:53:54;;;;;;;6.70;4.50;;;27.50;32.20;;;;;;5023494;28;20108;-69
2021/05/31 09:56:21;;;;;;;8.77;4.78;;;27.40;32.70;;;;;;5002854;28;20432;-69
2021/05/31 09:58:50;;;;;;;8.23;4.63;;;27.40;32.30;;;;;;5019112;28;20083;-70
2021/05/31 10:01:16;;;;;;;9.73;4.60;;;26.70;32.20;;;;;;5028333;28;20029;-68
2021/05/31 10:04:05;;;;;;;8.27;4.80;;;26.20;32.40;;;;;;5030985;28;20087;-66
2021/05/31 10:06:47;;;;;;;11.35;4.53;;;25.90;32.40;;;;;;5030856;28;20033;-68
2021/05/31 10:09:12;;;;;;;8.73;4.75;;;26.30;32.40;;;;;;5014555;28;20033;-67
2021/05/31 10:11:38;;;;;;;10.68;4.40;;;26.50;32.40;;;;;;5011455;28;20075;-67
2021/05/31 10:14:03;;;;;;;6.70;4.32;;;26.60;32.50;;;;;;5029479;28;20029;-67
2021/05/31 10:16:29;;;;;;;6.13;4.07;;;26.40;31.40;;;;;;5029353;28;20021;-66
2021/05/31 10:18:55;;;;;;;5.93;4.25;;;26.00;31.20;;;;;;5029403;28;20024;-68
2021/05/31 10:21:20;;;;;;;8.73;4.13;;;26.10;31.60;;;;;;5011433;28;20032;-66
2021/05/31 10:23:46;;;;;;;12.63;4.45;;;26.30;31.30;;;;;;4995014;28;20023;-67
2021/05/31 10:26:12;;;;;;;8.60;4.55;;;26.70;31.10;;;;;;5029586;28;20029;-69
2021/05/31 10:28:39;;;;;;;9.02;4.53;;;27.20;31.40;;;;;;5008980;28;20392;-70
2021/05/31 10:31:07;;;;;;;7.55;3.70;;;27.70;30.70;;;;;;5029215;28;20103;-69
2021/05/31 10:33:38;;;;;;;5.72;4.28;;;27.60;30.10;;;;;;5028962;28;20823;-69
2021/05/31 10:36:19;;;;;;;6.30;3.65;;;27.90;30.20;;;;;;5027324;28;20025;-70
2021/05/31 10:38:47;;;;;;;;;;;28.40;30.10;;;;;;5030121;28;20044;-70
2021/05/31 10:41:15;;;;;;;9.82;4.18;;;29.00;29.90;;;;;;5029674;28;19917;-70
2021/05/31 10:43:48;;;;;;;8.88;5.30;;;29.30;29.70;;;;;;5029718;28;20538;-70
2021/05/31 10:46:19;;;;;;;8.10;4.22;;;29.60;29.50;;;;;;5029809;28;20068;-70
2021/05/31 10:48:45;;;;;;;;;;;29.70;29.40;;;;;;5030108;28;20543;-71
2021/05/31 10:51:16;;;;;;;6.43;3.92;;;29.70;28.90;;;;;;5029794;28;19906;-72
2021/05/31 10:53:42;;;;;;;6.78;4.13;;;29.60;29.10;;;;;;5029986;28;20526;-70
2021/05/31 10:56:09;;;;;;;10.85;4.22;;;29.30;29.60;;;;;;5036098;28;20034;-71
2021/05/31 10:58:44;;;;;;;7.30;4.43;;;29.50;29.40;;;;;;5036102;28;20021;-70
2021/05/31 11:01:11;;;;;;;10.13;3.78;;;28.90;29.40;;;;;;5035973;28;20459;-68
2021/05/31 11:04:04;;;;;;;6.93;4.05;;;29.00;29.50;;;;;;5018408;28;20037;-70
2021/05/31 11:06:39;;;;;;;8.75;4.40;;;29.40;29.30;;;;;;5032577;28;20041;-70
2021/05/31 11:09:23;;;;;;;6.68;4.22;;;28.70;29.10;;;;;;5035369;28;20021;-68
2021/05/31 11:11:53;;;;;;;4.82;3.53;;;29.10;29.60;;;;;;5032589;28;20021;-69
2021/05/31 11:14:37;;;;;;;11.23;4.60;;;29.40;29.00;;;;;;5035337;28;20017;-68
2021/05/31 11:17:23;;;;;;;7.85;4.03;;;29.10;29.20;;;;;;5020830;28;20029;-66
2021/05/31 11:19:50;;;;;;;10.02;4.40;;;28.60;29.30;;;;;;5024340;28;20503;-69
2021/05/31 11:22:17;;;;;;;10.23;5.88;;;28.30;29.70;;;;;;5021461;28;20546;-69
2021/05/31 11:24:53;;;;;;;6.25;3.92;;;28.40;29.80;;;;;;5014422;28;20388;-69
2021/05/31 11:27:26;;;;;;;8.30;5.22;;;28.50;29.90;;;;;;5013810;28;20311;-70
2021/05/31 11:29:51;;;;;;;6.13;4.38;;;28.90;29.90;;;;;;5015305;28;20052;-69
2021/05/31 11:32:18;;;;;;;9.68;4.28;;;28.90;29.80;;;;;;5014804;28;20461;-69
2021/05/31 11:35:00;;;;;;;11.05;4.43;;;29.30;29.70;;;;;;5015091;28;20029;-69
2021/05/31 11:37:27;;;;;;;9.13;4.88;;;29.20;29.70;;;;;;4997636;28;20018;-69
2021/05/31 11:39:53;;;;;;;8.77;4.72;;;29.10;29.90;;;;;;5014979;28;20061;-69
2021/05/31 11:42:19;;;;;;;7.72;3.90;;;29.10;29.80;;;;;;5015150;28;20072;-69
2021/05/31 11:44:52;;;;;;;5.63;3.97;;;29.20;30.00;;;;;;5014932;28;20076;-70
2021/05/31 11:47:24;;;;;;;9.00;4.90;;;29.10;29.30;;;;;;5014836;28;20096;-69
2021/05/31 11:49:50;;;;;;;9.45;4.75;;;28.80;29.80;;;;;;5014862;28;20369;-69
2021/05/31 11:52:16;;;;;;;8.90;4.25;;;28.50;30.00;;;;;;5014743;28;20213;-69
2021/05/31 11:54:42;;;;;;;6.80;4.43;;;28.70;29.60;;;;;;5015906;28;20022;-69
2021/05/31 11:57:12;;;;;;;8.52;5.15;;;28.80;29.60;;;;;;5015699;28;20101;-68
2021/05/31 11:59:39;;;;;;;6.50;4.47;;;29.10;29.40;;;;;;4998426;28;20030;-69
2021/05/31 12:02:09;;;;;;;7.65;3.88;;;29.20;29.20;;;;;;5016260;28;20041;-68
2021/05/31 12:04:36;;;;;;;9.85;4.80;;;29.00;29.40;;;;;;5016179;28;20022;-68
2021/05/31 12:07:05;;;;;;;9.80;4.40;;;29.00;29.60;;;;;;5016006;28;20408;-69
2021/05/31 12:09:31;;;;;;;9.35;4.53;;;29.40;29.50;;;;;;5021572;28;20053;-69
2021/05/31 12:11:57;;;;;;;10.40;4.57;;;29.00;29.70;;;;;;5026045;28;20053;-69
2021/05/31 12:14:24;;;;;;;10.70;4.88;;;29.10;29.70;;;;;;5028842;28;20025;-69
2021/05/31 12:16:53;;;;;;;8.63;5.00;;;29.20;29.60;;;;;;5031979;28;20204;-68
2021/05/31 12:19:19;;;;;;;8.27;4.85;;;28.70;29.40;;;;;;5032006;28;20080;-68
2021/05/31 12:21:44;;;;;;;9.05;4.90;;;29.00;29.60;;;;;;5028829;28;20014;-68
2021/05/31 12:24:10;;;;;;;9.43;4.97;;;29.00;29.50;;;;;;5028081;28;20017;-67
2021/05/31 12:26:40;;;;;;;8.30;5.30;;;28.80;29.60;;;;;;5025180;28;20049;-68
2021/05/31 12:29:12;;;;;;;11.93;5.77;;;28.70;29.90;;;;;;5020947;28;20029;-68
2021/05/31 12:31:37;;;;;;;10.07;5.07;;;28.50;29.90;;;;;;5022894;28;20257;-67
2021/05/31 12:34:09;;;;;;;15.68;4.45;;;28.70;30.00;;;;;;5022904;28;20476;-68
2021/05/31 12:36:35;;;;;;;8.40;4.28;;;29.00;29.70;;;;;;5026269;28;20021;-68
2021/05/31 12:39:02;;;;;;;11.52;4.50;;;28.90;29.80;;;;;;5028321;28;20071;-67
2021/05/31 12:41:28;;;;;;;6.15;3.70;;;28.80;29.60;;;;;;5019972;28;20057;-68
2021/05/31 12:44:03;;;;;;;9.27;4.40;;;28.60;29.60;;;;;;5022643;28;20030;-68
2021/05/31 12:46:28;;;;;;;5.60;3.50;;;28.60;29.50;;;;;;5030433;28;20029;-67
2021/05/31 12:48:54;;;;;;;7.80;4.28;;;28.40;29.80;;;;;;5032092;28;20087;-66
2021/05/31 12:51:21;;;;;;;6.15;4.10;;;28.80;29.50;;;;;;5014433;28;20079;-67
2021/05/31 12:53:48;;;;;;;9.90;4.00;;;28.70;29.40;;;;;;5031842;28;20026;-67